• Join FlightAware (Why Join?)
  • Login
  • US Flag 
08:44AM EDT


 

Airport Tracker/Info


-or-


 

Live Flight TrackerFlight Track Log ✈ SWA902 ✈ 21-Apr-2013 ✈ KPVD - KMCO

Flight Track Log - Related Links

Times and Time Zones

All times are in EDT time to prevent confusion due to time zone crossing. See the SWA902 flight status page for this flight to view local times or setup timezone preferences in your user account.

Time Position Orientation Groundspeed Altitude Reporting Facility
EDT Latitude Longitude Course Direction KTS MPH feet Rate Location/Type
12:51PM 41.7311 -71.4219 66° East 151 174 800  Level Boston Center
12:52PM 41.7533 -71.3547 66° East 207 238 3,100 2,580 Climbing Boston Center
12:53PM 41.7150 -71.2664 120° Southeast 222 255 7,000 2,280 Climbing Boston Center
12:54PM 41.6483 -71.2706 183° South 243 280 8,400 2,160 Climbing Boston Center
12:55PM 41.5586 -71.2667 178° South 283 326 11,400 2,220 Climbing Boston Center
12:56PM 41.4628 -71.2600 177° South 332 382 12,900 2,160 Climbing Boston Center
12:57PM 41.3564 -71.2564 179° South 379 436 15,800 1,980 Climbing Boston Center
12:58PM 41.2500 -71.2531 179° South 386 444 16,900 1,560 Climbing Boston Center
12:59PM 41.1567 -71.3042 202° Southwest 386 444 19,000 2,040 Climbing Boston Center
01:00PM 41.1100 -71.4319 244° Southwest 344 396 21,000 2,160 Climbing Boston Center
01:01PM 41.0733 -71.5314 244° Southwest 360 414 23,400 2,520 Climbing Boston Center
01:02PM 40.9972 -71.6619 232° Southwest 376 433 26,100 2,220 Climbing Boston Center
01:03PM 40.9292 -71.7669 229° Southwest 386 444 27,900 1,800 Climbing Boston Center
01:04PM 40.8547 -71.8719 227° Southwest 391 450 29,800 1,980 Climbing Boston Center
01:05PM 40.7803 -71.9686 225° Southwest 386 444 31,900 1,980 Climbing Boston Center
01:06PM 40.7056 -72.0650 224° Southwest 380 437 33,800 1,620 Climbing Boston Center
01:07PM 40.6392 -72.1639 229° Southwest 374 430 35,200 1,200 Climbing Boston Center
01:08PM 40.5683 -72.2625 227° Southwest 374 430 36,300 1,140 Climbing Boston Center
01:09PM 40.5081 -72.3500 228° Southwest 374 430 37,500 840 Climbing Boston Center
01:10PM 40.4436 -72.4483 229° Southwest 369 425 38,000 240 Climbing Boston Center
01:11PM 40.3769 -72.5464 228° Southwest 369 425 38,000  Level Boston Center
01:12PM 40.3058 -72.6442 226° Southwest 369 425 38,000  Level Boston Center
01:13PM 40.2389 -72.7444 229° Southwest 369 425 38,000  Level Boston Center
01:14PM 40.1678 -72.8419 226° Southwest 369 425 38,000  Level Boston Center
01:16PM 40.0583 -73.0003 228° Southwest 367 422 38,000  Level Washington Center
01:17PM 39.9875 -73.0975 226° Southwest 367 422 38,000  Level Washington Center
01:18PM 39.9208 -73.1947 228° Southwest 367 422 38,000  Level Washington Center
01:19PM 39.8517 -73.2889 226° Southwest 367 422 38,000  Level Washington Center
01:20PM 39.7847 -73.3828 227° Southwest 367 422 38,000  Level Washington Center
01:21PM 39.7075 -73.4903 227° Southwest 367 422 38,000  Level Washington Center
01:22PM 39.6342 -73.5869 225° Southwest 367 422 38,000  Level Washington Center
01:23PM 39.5750 -73.6719 228° Southwest 367 422 38,000  Level Washington Center
01:24PM 39.5036 -73.7706 227° Southwest 367 422 38,000  Level Washington Center
01:25PM 39.4322 -73.8667 226° Southwest 372 428 38,000  Level Washington Center
01:26PM 39.3606 -73.9650 227° Southwest 372 428 38,000  Level Washington Center
01:27PM 39.2892 -74.0631 227° Southwest 372 428 38,000  Level Washington Center
01:28PM 39.2172 -74.1583 226° Southwest 372 428 38,000  Level Washington Center
01:29PM 39.1456 -74.2561 227° Southwest 377 434 38,000  Level Washington Center
01:30PM 39.0714 -74.3564 226° Southwest 377 434 38,000  Level Washington Center
01:31PM 38.9994 -74.4539 227° Southwest 382 440 38,000  Level Washington Center
01:32PM 38.9253 -74.5483 225° Southwest 382 440 38,000  Level Washington Center
01:33PM 38.8447 -74.6347 220° Southwest 382 440 38,000  Level Washington Center
01:34PM 38.7661 -74.7211 221° Southwest 382 440 38,000  Level Washington Center
01:35PM 38.6792 -74.7992 215° Southwest 382 440 38,000  Level Washington Center
01:36PM 38.5942 -74.8744 215° Southwest 377 434 38,000  Level Washington Center
01:37PM 38.5092 -74.9469 214° Southwest 377 434 38,000  Level Washington Center
01:38PM 38.4239 -75.0219 215° Southwest 377 434 38,000  Level Washington Center
01:39PM 38.3389 -75.0914 213° Southwest 377 434 38,000  Level Washington Center
01:40PM 38.2558 -75.1714 217° Southwest 377 434 38,000  Level Washington Center
01:41PM 38.1706 -75.2431 213° Southwest 377 434 38,000  Level Washington Center
01:42PM 38.0853 -75.3200 215° Southwest 377 434 38,000  Level Washington Center
01:43PM 37.9997 -75.3942 214° Southwest 377 434 38,000  Level Washington Center
01:44PM 37.9125 -75.4681 214° Southwest 377 434 38,000  Level Washington Center
01:45PM 37.8269 -75.5419 214° Southwest 377 434 38,000  Level Washington Center
01:46PM 37.7414 -75.6156 214° Southwest 377 434 38,000  Level Washington Center
01:47PM 37.6581 -75.6864 214° Southwest 377 434 38,000  Level Washington Center
01:48PM 37.5661 -75.7647 214° Southwest 377 434 38,000  Level Washington Center
01:49PM 37.4825 -75.8325 213° Southwest 377 434 38,000  Level Washington Center
01:50PM 37.4011 -75.9031 215° Southwest 372 428 38,000  Level Washington Center
01:51PM 37.3194 -75.9706 213° Southwest 372 428 38,000  Level Washington Center
01:52PM 37.2400 -76.0381 214° Southwest 362 417 38,000  Level Washington Center
01:53PM 37.1583 -76.1078 214° Southwest 362 417 38,000  Level Washington Center
01:54PM 37.0706 -76.1722 210° Southwest 362 417 38,000 300 Level Washington Center
01:55PM 36.9867 -76.2444 215° Southwest 362 417 38,600 600 Climbing Washington Center
01:56PM 36.9008 -76.3139 213° Southwest 367 422 39,200 540 Climbing Washington Center
01:57PM 36.8147 -76.3858 214° Southwest 372 428 39,700 360 Climbing Washington Center
01:58PM 36.7267 -76.4600 214° Southwest 377 434 40,000 120 Climbing Washington Center
01:59PM 36.6383 -76.5367 215° Southwest 382 440 40,000  Level Washington Center
02:00PM 36.5542 -76.6211 219° Southwest 387 445 40,000  Level Washington Center
02:01PM 36.4700 -76.7025 218° Southwest 387 445 40,000  Level Washington Center
02:02PM 36.3881 -76.7839 219° Southwest 387 445 40,000  Level Washington Center
02:03PM 36.3058 -76.8625 218° Southwest 392 451 40,000  Level Washington Center
02:04PM 36.2214 -76.9461 219° Southwest 392 451 40,000  Level Washington Center
02:05PM 36.1392 -77.0272 219° Southwest 392 451 40,000  Level Washington Center
02:06PM 36.0547 -77.1078 218° Southwest 392 451 40,000  Level Washington Center
02:07PM 35.9850 -77.1783 219° Southwest 387 445 40,000  Level Washington Center
02:08PM 35.9003 -77.2614 218° Southwest 387 445 40,000  Level Washington Center
02:09PM 35.8158 -77.3414 218° Southwest 387 445 40,000  Level Washington Center
02:10PM 35.7311 -77.4242 218° Southwest 387 445 40,000  Level Washington Center
02:11PM 35.6442 -77.5064 218° Southwest 393 452 40,000  Level Washington Center
02:12PM 35.5594 -77.5886 218° Southwest 393 452 40,000  Level Washington Center
02:13PM 35.4789 -77.6658 218° Southwest 398 458 40,000  Level Washington Center
02:14PM 35.3919 -77.7450 217° Southwest 398 458 40,000  Level Washington Center
02:15PM 35.3069 -77.8242 217° Southwest 398 458 40,000  Level Washington Center
02:16PM 35.2219 -77.9056 218° Southwest 398 458 40,000  Level Washington Center
02:17PM 35.1369 -77.9872 218° Southwest 398 458 40,000  Level Washington Center
02:18PM 35.0517 -78.0683 218° Southwest 398 458 40,000  Level Washington Center
02:19PM 34.9644 -78.1517 218° Southwest 398 458 40,000  Level Washington Center
02:20PM 34.8728 -78.2350 217° Southwest 398 458 40,000  Level Washington Center
02:23PM 34.5781 -78.5125 218° Southwest 399 459 40,000  Level Jacksonville Center
02:24PM 34.4911 -78.5900 216° Southwest 399 459 40,000  Level Jacksonville Center
02:25PM 34.4083 -78.6747 220° Southwest 404 465 40,000  Level Jacksonville Center
02:26PM 34.3233 -78.7517 217° Southwest 404 465 40,000  Level Jacksonville Center
02:27PM 34.2383 -78.8311 218° Southwest 404 465 40,000  Level Jacksonville Center
02:28PM 34.1533 -78.9078 217° Southwest 399 459 40,000  Level Jacksonville Center
02:29PM 34.0681 -78.9869 218° Southwest 399 459 40,000  Level Jacksonville Center
02:30PM 33.9808 -79.0658 217° Southwest 399 459 40,000  Level Jacksonville Center
02:31PM 33.8956 -79.1422 217° Southwest 399 459 40,000  Level Jacksonville Center
02:32PM 33.8100 -79.2208 217° Southwest 399 459 40,000  Level Jacksonville Center
02:33PM 33.7247 -79.2967 216° Southwest 399 459 40,000  Level Jacksonville Center
02:34PM 33.6331 -79.3778 216° Southwest 393 452 40,000  Level Jacksonville Center
02:35PM 33.5475 -79.4561 217° Southwest 388 447 40,000  Level Jacksonville Center
02:36PM 33.4642 -79.5314 217° Southwest 388 447 40,000  Level Jacksonville Center
02:37PM 33.3783 -79.6092 217° Southwest 388 447 40,000  Level Jacksonville Center
02:38PM 33.2928 -79.6844 216° Southwest 383 441 40,000  Level Jacksonville Center
02:39PM 33.2089 -79.7594 217° Southwest 383 441 40,000  Level Jacksonville Center
02:40PM 33.1211 -79.8369 216° Southwest 383 441 40,000  Level Jacksonville Center
02:41PM 33.0353 -79.9117 216° Southwest 383 441 40,000  Level Jacksonville Center
02:42PM 32.9472 -79.9889 216° Southwest 383 441 40,000  Level Jacksonville Center
02:43PM 32.8700 -80.0756 223° Southwest 383 441 40,000  Level Jacksonville Center
02:44PM 32.8114 -80.1639 232° Southwest 383 441 40,000  Level Jacksonville Center
02:45PM 32.7489 -80.2644 234° Southwest 388 447 40,000  Level Jacksonville Center
02:46PM 32.6861 -80.3628 233° Southwest 388 447 40,000  Level Jacksonville Center
02:47PM 32.6256 -80.4606 234° Southwest 383 441 40,000  Level Jacksonville Center
02:48PM 32.5606 -80.5583 232° Southwest 383 441 40,000  Level Jacksonville Center
02:49PM 32.4975 -80.6586 233° Southwest 383 441 40,000  Level Jacksonville Center
02:50PM 32.4344 -80.7561 233° Southwest 383 441 40,000  Level Jacksonville Center
02:51PM 32.3694 -80.8633 234° Southwest 377 434 40,000  Level Jacksonville Center
02:52PM 32.3022 -80.9631 231° Southwest 377 434 40,000  Level Jacksonville Center
02:53PM 32.2469 -81.0503 233° Southwest 382 440 40,000  Level Jacksonville Center
02:54PM 32.1775 -81.1522 231° Southwest 382 440 40,000  Level Jacksonville Center
02:55PM 32.1036 -81.2419 226° Southwest 382 440 40,000  Level Jacksonville Center
02:56PM 32.0211 -81.3244 220° Southwest 382 440 40,000  Level Jacksonville Center
02:57PM 31.9303 -81.4139 220° Southwest 388 447 40,000  Level Jacksonville Center
02:58PM 31.8519 -81.4911 220° Southwest 388 447 40,000  Level Jacksonville Center
02:59PM 31.7775 -81.5656 220° Southwest 382 440 40,000  Level Jacksonville Center
03:00PM 31.6908 -81.6522 220° Southwest 377 434 40,000 -360 Level Jacksonville Center
03:01PM 31.6203 -81.7192 219° Southwest 376 433 39,300 -900 Descending Jacksonville Center
03:02PM 31.5186 -81.7886 210° Southwest 376 433 38,300 -660 Descending Jacksonville Center
03:03PM 31.4083 -81.8239 195° South 408 470 38,000 -180 Descending Jacksonville Center
03:04PM 31.3000 -81.8642 198° South 413 475 38,000 -180 Level Jacksonville Center
03:05PM 31.1897 -81.8994 195° South 413 475 37,700 -660 Descending Jacksonville Center
03:06PM 31.0833 -81.9344 196° South 406 467 36,700 -960 Descending Jacksonville Center
03:07PM 30.9814 -81.9694 196° South 411 473 35,800 -1,020 Descending Jacksonville Center
03:08PM 30.8731 -82.0067 196° South 417 480 34,700 -900 Descending Jacksonville Center
03:09PM 30.7647 -82.0392 194° South 412 474 34,000 -360 Descending Jacksonville Center
03:10PM 30.6564 -82.0739 195° South 412 474 34,000  Level Jacksonville Center
03:11PM 30.5439 -82.1039 193° South 412 474 34,000  Level Jacksonville Center
03:12PM 30.4333 -82.1433 197° South 412 474 34,000 -60 Level Jacksonville Center
03:13PM 30.3231 -82.1803 196° South 417 480 33,900 -600 Descending Jacksonville Center
03:14PM 30.2125 -82.2147 195° South 417 480 32,900 -1,020 Descending Jacksonville Center
03:15PM 30.0936 -82.2131 179° South 417 480 31,900 -1,020 Descending Jacksonville Center
03:16PM 29.9722 -82.1947 173° South 422 486 30,900 -1,020 Descending Jacksonville Center
03:17PM 29.8553 -82.1694 169° South 427 491 29,900 -1,500 Descending Jacksonville Center
03:18PM 29.7403 -82.1439 169° South 427 491 28,000 -1,500 Descending Jacksonville Center
03:19PM 29.6275 -82.1183 169° South 427 491 26,900 -1,800 Descending Jacksonville Center
03:20PM 29.5167 -82.0883 167° South 422 486 24,400 -2,640 Descending Jacksonville Center
03:21PM 29.4036 -82.0606 168° South 416 479 21,700 -2,340 Descending Jacksonville Center
03:22PM 29.2803 -82.0331 169° South 411 473 19,800 -2,160 Descending Jacksonville Center
03:23PM 29.1861 -82.0078 167° South 405 466 17,400 -2,340 Descending Jacksonville Center
03:24PM 29.0839 -81.9825 168° South 391 450 15,200 -2,160 Descending Jacksonville Center
03:25PM 28.9856 -81.9597 169° South 376 433 13,100 -2,100 Descending Jacksonville Center
03:26PM 28.8850 -81.9250 163° South 358 412 11,000 -1,080 Descending Jacksonville Center
03:27PM 28.8011 -81.8786 154° Southeast 341 392 11,000 -180 Level Jacksonville Center
03:28PM 28.7236 -81.8319 152° Southeast 330 380 10,700 -840 Descending Jacksonville Center
03:30PM 28.6333 -81.7833 155° Southeast 294 338 9,200 -1,200 Descending Orlando TRACON
03:31PM 28.5667 -81.7500 156° South 277 319 8,200 -780 Descending Orlando TRACON
03:31PM 28.5167 -81.7167 150° Southeast 241 277 7,800 -600 Descending Orlando TRACON
03:33PM 28.4500 -81.6833 156° South 238 274 7,000 -360 Descending Orlando TRACON
03:34PM 28.3667 -81.6500 161° South 240 276 7,100  Climbing Orlando TRACON
03:34PM 28.3333 -81.6333 156° South 239 275 7,100  Level Orlando TRACON
03:36PM 28.2667 -81.5833 147° Southeast 234 269 7,100 -60 Level Orlando TRACON
03:36PM 28.2333 -81.5333 127° Southeast 238 274 7,000 -600 Descending Orlando TRACON
03:37PM 28.2333 -81.4667 90° East 228 262 6,100 -1,560 Descending Orlando TRACON
03:39PM 28.2167 -81.3833 103° East 217 250 3,800 -2,100 Descending Orlando TRACON
03:39PM 28.2167 -81.3167 90° East 213 245 1,900 -1,200 Descending Orlando TRACON
03:41PM 28.2667 -81.3000 16° North 161 185 1,400 -180 Descending Orlando TRACON
03:42PM 28.3167 -81.3000 360° North 168 193 1,600 -60 Climbing Orlando TRACON
03:42PM 28.3500 -81.3000 360° North 155 178 1,300 -600 Descending Orlando TRACON
03:44PM 28.3833 -81.3000 360° North 133 153 500 -780 Descending Orlando TRACON
03:45PM 28.4167 -81.3000 24° Northeast  Level FlightAware Approximate
03:52PM 28.4294 -81.3090 24° Northeast  Level Estimated
03:53PM 28.4294 -81.3090 24° Northeast  Level Estimated
03:54PM 28.4294 -81.3090 24° Northeast  Level Estimated
03:55PM 28.4294 -81.3090 24° Northeast  Level Estimated
03:56PM 28.4294 -81.3090 24° Northeast  Level Estimated